sensor_id;sensor_type;location;lat;lon;timestamp;P1;durP1;ratioP1;P2;durP2;ratioP2
51438;SDS011;38816;51.142;-0.974;2022-12-07T00:01:30;46.25;;;16.80;;
51438;SDS011;38816;51.142;-0.974;2022-12-07T00:03:59;38.28;;;16.13;;
51438;SDS011;38816;51.142;-0.974;2022-12-07T00:06:34;40.03;;;17.42;;
51438;SDS011;38816;51.142;-0.974;2022-12-07T00:09:05;35.28;;;15.10;;
51438;SDS011;38816;51.142;-0.974;2022-12-07T00:11:32;35.78;;;15.65;;
51438;SDS011;38816;51.142;-0.974;2022-12-07T00:13:59;35.20;;;15.43;;
51438;SDS011;38816;51.142;-0.974;2022-12-07T00:16:27;44.75;;;17.33;;
51438;SDS011;38816;51.142;-0.974;2022-12-07T00:18:55;33.50;;;15.73;;
51438;SDS011;38816;51.142;-0.974;2022-12-07T00:21:30;38.63;;;16.00;;
51438;SDS011;38816;51.142;-0.974;2022-12-07T00:23:58;32.35;;;15.38;;
51438;SDS011;38816;51.142;-0.974;2022-12-07T00:28:54;37.58;;;13.93;;
51438;SDS011;38816;51.142;-0.974;2022-12-07T00:31:23;35.08;;;15.18;;
51438;SDS011;38816;51.142;-0.974;2022-12-07T00:33:50;34.00;;;15.60;;
51438;SDS011;38816;51.142;-0.974;2022-12-07T00:36:17;30.95;;;14.57;;
51438;SDS011;38816;51.142;-0.974;2022-12-07T00:38:44;39.22;;;15.63;;
51438;SDS011;38816;51.142;-0.974;2022-12-07T00:41:11;39.70;;;16.50;;
51438;SDS011;38816;51.142;-0.974;2022-12-07T00:43:38;40.00;;;14.80;;
51438;SDS011;38816;51.142;-0.974;2022-12-07T00:46:04;38.40;;;15.32;;
51438;SDS011;38816;51.142;-0.974;2022-12-07T00:48:29;33.95;;;15.85;;
51438;SDS011;38816;51.142;-0.974;2022-12-07T00:50:55;35.25;;;16.70;;
51438;SDS011;38816;51.142;-0.974;2022-12-07T00:53:21;32.28;;;15.20;;
51438;SDS011;38816;51.142;-0.974;2022-12-07T00:55:47;32.03;;;15.13;;
51438;SDS011;38816;51.142;-0.974;2022-12-07T00:58:12;33.28;;;14.63;;
51438;SDS011;38816;51.142;-0.974;2022-12-07T01:00:39;38.92;;;15.27;;
51438;SDS011;38816;51.142;-0.974;2022-12-07T01:03:06;35.35;;;15.10;;
51438;SDS011;38816;51.142;-0.974;2022-12-07T01:05:33;37.97;;;15.15;;
51438;SDS011;38816;51.142;-0.974;2022-12-07T01:07:58;41.70;;;16.42;;
51438;SDS011;38816;51.142;-0.974;2022-12-07T01:10:24;37.22;;;15.63;;
51438;SDS011;38816;51.142;-0.974;2022-12-07T01:12:51;41.17;;;15.85;;
51438;SDS011;38816;51.142;-0.974;2022-12-07T01:15:16;39.88;;;15.77;;
51438;SDS011;38816;51.142;-0.974;2022-12-07T01:17:41;36.35;;;15.88;;
51438;SDS011;38816;51.142;-0.974;2022-12-07T01:20:07;36.63;;;15.93;;
51438;SDS011;38816;51.142;-0.974;2022-12-07T01:22:37;41.55;;;17.33;;
51438;SDS011;38816;51.142;-0.974;2022-12-07T01:25:03;37.88;;;16.33;;
51438;SDS011;38816;51.142;-0.974;2022-12-07T01:27:29;40.80;;;16.38;;
51438;SDS011;38816;51.142;-0.974;2022-12-07T01:29:55;40.55;;;16.63;;
51438;SDS011;38816;51.142;-0.974;2022-12-07T01:32:20;41.22;;;15.82;;
51438;SDS011;38816;51.142;-0.974;2022-12-07T01:34:47;43.72;;;17.48;;
51438;SDS011;38816;51.142;-0.974;2022-12-07T01:37:13;42.67;;;16.73;;
51438;SDS011;38816;51.142;-0.974;2022-12-07T01:39:38;35.67;;;16.27;;
51438;SDS011;38816;51.142;-0.974;2022-12-07T01:42:04;40.53;;;17.45;;
51438;SDS011;38816;51.142;-0.974;2022-12-07T01:44:29;46.28;;;17.67;;
51438;SDS011;38816;51.142;-0.974;2022-12-07T01:46:57;38.25;;;16.77;;
51438;SDS011;38816;51.142;-0.974;2022-12-07T01:52:01;38.47;;;18.00;;
51438;SDS011;38816;51.142;-0.974;2022-12-07T01:54:49;43.97;;;18.38;;
51438;SDS011;38816;51.142;-0.974;2022-12-07T01:57:18;46.88;;;18.38;;
51438;SDS011;38816;51.142;-0.974;2022-12-07T01:59:48;44.88;;;17.73;;
51438;SDS011;38816;51.142;-0.974;2022-12-07T02:02:19;39.83;;;17.70;;
51438;SDS011;38816;51.142;-0.974;2022-12-07T02:04:52;41.05;;;16.98;;
51438;SDS011;38816;51.142;-0.974;2022-12-07T02:07:19;41.50;;;18.52;;
51438;SDS011;38816;51.142;-0.974;2022-12-07T02:09:46;45.55;;;18.63;;
51438;SDS011;38816;51.142;-0.974;2022-12-07T02:12:11;40.92;;;18.58;;
51438;SDS011;38816;51.142;-0.974;2022-12-07T02:14:36;40.65;;;18.35;;
51438;SDS011;38816;51.142;-0.974;2022-12-07T02:17:05;38.33;;;18.17;;
51438;SDS011;38816;51.142;-0.974;2022-12-07T02:28:12;39.78;;;17.75;;
51438;SDS011;38816;51.142;-0.974;2022-12-07T02:31:08;36.22;;;17.40;;
51438;SDS011;38816;51.142;-0.974;2022-12-07T02:33:41;39.17;;;17.35;;
51438;SDS011;38816;51.142;-0.974;2022-12-07T02:36:25;39.92;;;17.90;;
51438;SDS011;38816;51.142;-0.974;2022-12-07T02:41:26;33.88;;;16.77;;
51438;SDS011;38816;51.142;-0.974;2022-12-07T02:43:55;33.13;;;16.42;;
51438;SDS011;38816;51.142;-0.974;2022-12-07T02:46:49;35.15;;;16.42;;
51438;SDS011;38816;51.142;-0.974;2022-12-07T02:49:15;33.53;;;16.63;;
51438;SDS011;38816;51.142;-0.974;2022-12-07T02:51:42;28.77;;;15.30;;
51438;SDS011;38816;51.142;-0.974;2022-12-07T02:54:14;31.48;;;14.77;;
51438;SDS011;38816;51.142;-0.974;2022-12-07T03:07:20;31.65;;;15.38;;
51438;SDS011;38816;51.142;-0.974;2022-12-07T03:10:03;34.65;;;15.63;;
51438;SDS011;38816;51.142;-0.974;2022-12-07T03:15:25;39.20;;;16.75;;
51438;SDS011;38816;51.142;-0.974;2022-12-07T03:18:05;32.63;;;15.23;;
51438;SDS011;38816;51.142;-0.974;2022-12-07T03:20:32;42.67;;;17.35;;
51438;SDS011;38816;51.142;-0.974;2022-12-07T03:23:02;33.22;;;15.07;;
51438;SDS011;38816;51.142;-0.974;2022-12-07T03:25:30;48.10;;;16.20;;
51438;SDS011;38816;51.142;-0.974;2022-12-07T03:27:57;32.45;;;16.27;;
51438;SDS011;38816;51.142;-0.974;2022-12-07T03:33:00;39.80;;;17.13;;
51438;SDS011;38816;51.142;-0.974;2022-12-07T03:35:36;34.08;;;15.77;;
51438;SDS011;38816;51.142;-0.974;2022-12-07T03:38:17;35.25;;;16.40;;
51438;SDS011;38816;51.142;-0.974;2022-12-07T03:40:52;39.20;;;16.73;;
51438;SDS011;38816;51.142;-0.974;2022-12-07T03:43:22;39.13;;;15.95;;
51438;SDS011;38816;51.142;-0.974;2022-12-07T03:46:09;35.17;;;16.08;;
51438;SDS011;38816;51.142;-0.974;2022-12-07T03:49:04;32.45;;;14.70;;
51438;SDS011;38816;51.142;-0.974;2022-12-07T03:54:13;38.70;;;15.88;;
51438;SDS011;38816;51.142;-0.974;2022-12-07T03:56:44;37.90;;;14.48;;
51438;SDS011;38816;51.142;-0.974;2022-12-07T03:59:12;32.58;;;15.52;;
51438;SDS011;38816;51.142;-0.974;2022-12-07T04:01:41;29.50;;;15.07;;
51438;SDS011;38816;51.142;-0.974;2022-12-07T04:04:07;49.78;;;16.65;;
51438;SDS011;38816;51.142;-0.974;2022-12-07T04:06:32;34.47;;;16.48;;
51438;SDS011;38816;51.142;-0.974;2022-12-07T04:08:58;34.00;;;17.05;;
51438;SDS011;38816;51.142;-0.974;2022-12-07T04:11:23;37.92;;;16.33;;
51438;SDS011;38816;51.142;-0.974;2022-12-07T04:13:48;38.50;;;16.33;;
51438;SDS011;38816;51.142;-0.974;2022-12-07T04:16:32;32.42;;;15.40;;
51438;SDS011;38816;51.142;-0.974;2022-12-07T04:18:58;35.97;;;15.18;;
51438;SDS011;38816;51.142;-0.974;2022-12-07T04:21:23;43.30;;;15.85;;
51438;SDS011;38816;51.142;-0.974;2022-12-07T04:23:49;37.60;;;15.60;;
51438;SDS011;38816;51.142;-0.974;2022-12-07T04:26:14;36.45;;;15.10;;
51438;SDS011;38816;51.142;-0.974;2022-12-07T04:28:39;38.17;;;16.40;;
51438;SDS011;38816;51.142;-0.974;2022-12-07T04:31:05;36.45;;;14.88;;
51438;SDS011;38816;51.142;-0.974;2022-12-07T04:33:30;36.78;;;16.15;;
51438;SDS011;38816;51.142;-0.974;2022-12-07T04:35:56;30.02;;;15.38;;
51438;SDS011;38816;51.142;-0.974;2022-12-07T04:38:21;32.47;;;15.13;;
51438;SDS011;38816;51.142;-0.974;2022-12-07T04:40:46;33.20;;;15.77;;
51438;SDS011;38816;51.142;-0.974;2022-12-07T04:43:12;35.83;;;14.63;;
51438;SDS011;38816;51.142;-0.974;2022-12-07T04:45:37;37.42;;;14.35;;
51438;SDS011;38816;51.142;-0.974;2022-12-07T04:48:02;26.83;;;13.73;;
51438;SDS011;38816;51.142;-0.974;2022-12-07T04:50:28;36.00;;;15.20;;
51438;SDS011;38816;51.142;-0.974;2022-12-07T04:52:53;33.17;;;14.63;;
51438;SDS011;38816;51.142;-0.974;2022-12-07T04:55:19;36.75;;;14.43;;
51438;SDS011;38816;51.142;-0.974;2022-12-07T04:57:44;37.95;;;14.10;;
51438;SDS011;38816;51.142;-0.974;2022-12-07T05:00:10;36.38;;;13.80;;
51438;SDS011;38816;51.142;-0.974;2022-12-07T05:05:48;26.88;;;13.40;;
51438;SDS011;38816;51.142;-0.974;2022-12-07T05:08:13;34.45;;;14.20;;
51438;SDS011;38816;51.142;-0.974;2022-12-07T05:10:39;30.27;;;14.32;;
51438;SDS011;38816;51.142;-0.974;2022-12-07T05:13:04;39.42;;;14.82;;
51438;SDS011;38816;51.142;-0.974;2022-12-07T05:15:29;34.03;;;13.68;;
51438;SDS011;38816;51.142;-0.974;2022-12-07T05:17:55;34.88;;;14.50;;
51438;SDS011;38816;51.142;-0.974;2022-12-07T05:20:20;31.58;;;14.82;;
51438;SDS011;38816;51.142;-0.974;2022-12-07T05:22:45;33.50;;;14.02;;
51438;SDS011;38816;51.142;-0.974;2022-12-07T05:25:11;35.22;;;15.40;;
51438;SDS011;38816;51.142;-0.974;2022-12-07T05:27:36;33.13;;;14.77;;
51438;SDS011;38816;51.142;-0.974;2022-12-07T05:30:02;35.65;;;14.32;;
51438;SDS011;38816;51.142;-0.974;2022-12-07T05:32:27;33.25;;;14.98;;
51438;SDS011;38816;51.142;-0.974;2022-12-07T05:34:53;31.88;;;14.93;;
51438;SDS011;38816;51.142;-0.974;2022-12-07T05:37:19;31.75;;;15.30;;
51438;SDS011;38816;51.142;-0.974;2022-12-07T05:39:45;34.97;;;14.20;;
51438;SDS011;38816;51.142;-0.974;2022-12-07T05:42:10;107.93;;;17.08;;
51438;SDS011;38816;51.142;-0.974;2022-12-07T05:44:39;32.38;;;14.82;;
51438;SDS011;38816;51.142;-0.974;2022-12-07T05:47:09;30.02;;;15.75;;
51438;SDS011;38816;51.142;-0.974;2022-12-07T05:49:35;32.03;;;15.52;;
51438;SDS011;38816;51.142;-0.974;2022-12-07T05:52:01;28.88;;;14.55;;
51438;SDS011;38816;51.142;-0.974;2022-12-07T05:54:27;30.33;;;14.82;;
51438;SDS011;38816;51.142;-0.974;2022-12-07T05:56:52;33.72;;;14.38;;
51438;SDS011;38816;51.142;-0.974;2022-12-07T05:59:17;24.92;;;13.10;;
51438;SDS011;38816;51.142;-0.974;2022-12-07T06:02:07;42.85;;;15.50;;
51438;SDS011;38816;51.142;-0.974;2022-12-07T06:04:38;32.70;;;14.88;;
51438;SDS011;38816;51.142;-0.974;2022-12-07T06:07:05;30.38;;;15.43;;
51438;SDS011;38816;51.142;-0.974;2022-12-07T06:09:30;35.42;;;15.75;;
51438;SDS011;38816;51.142;-0.974;2022-12-07T06:11:57;32.22;;;15.73;;
51438;SDS011;38816;51.142;-0.974;2022-12-07T06:14:42;34.22;;;15.63;;
51438;SDS011;38816;51.142;-0.974;2022-12-07T06:17:07;38.58;;;16.98;;
51438;SDS011;38816;51.142;-0.974;2022-12-07T06:19:33;39.70;;;16.98;;
51438;SDS011;38816;51.142;-0.974;2022-12-07T06:22:00;38.70;;;17.02;;
51438;SDS011;38816;51.142;-0.974;2022-12-07T06:24:26;35.40;;;16.35;;
51438;SDS011;38816;51.142;-0.974;2022-12-07T06:26:51;40.60;;;18.50;;
51438;SDS011;38816;51.142;-0.974;2022-12-07T06:29:17;36.90;;;17.08;;
51438;SDS011;38816;51.142;-0.974;2022-12-07T06:31:43;38.25;;;18.42;;
51438;SDS011;38816;51.142;-0.974;2022-12-07T06:34:10;39.70;;;18.52;;
51438;SDS011;38816;51.142;-0.974;2022-12-07T06:36:37;40.58;;;17.25;;
51438;SDS011;38816;51.142;-0.974;2022-12-07T06:39:02;36.03;;;17.38;;
51438;SDS011;38816;51.142;-0.974;2022-12-07T06:41:28;37.63;;;17.88;;
51438;SDS011;38816;51.142;-0.974;2022-12-07T06:43:54;43.13;;;17.88;;
51438;SDS011;38816;51.142;-0.974;2022-12-07T06:46:20;40.38;;;17.65;;
51438;SDS011;38816;51.142;-0.974;2022-12-07T06:48:45;41.97;;;18.75;;
51438;SDS011;38816;51.142;-0.974;2022-12-07T06:51:10;38.10;;;17.20;;
51438;SDS011;38816;51.142;-0.974;2022-12-07T06:53:36;36.60;;;16.58;;
51438;SDS011;38816;51.142;-0.974;2022-12-07T06:56:03;38.13;;;16.70;;
51438;SDS011;38816;51.142;-0.974;2022-12-07T06:58:29;46.50;;;16.13;;
51438;SDS011;38816;51.142;-0.974;2022-12-07T07:00:54;37.22;;;16.80;;
51438;SDS011;38816;51.142;-0.974;2022-12-07T07:03:20;36.42;;;16.45;;
51438;SDS011;38816;51.142;-0.974;2022-12-07T07:05:45;35.15;;;16.05;;
51438;SDS011;38816;51.142;-0.974;2022-12-07T07:08:11;30.35;;;15.05;;
51438;SDS011;38816;51.142;-0.974;2022-12-07T07:10:37;36.72;;;16.42;;
51438;SDS011;38816;51.142;-0.974;2022-12-07T07:13:03;45.50;;;15.88;;
51438;SDS011;38816;51.142;-0.974;2022-12-07T07:15:29;35.00;;;14.85;;
51438;SDS011;38816;51.142;-0.974;2022-12-07T07:17:54;36.45;;;15.35;;
51438;SDS011;38816;51.142;-0.974;2022-12-07T07:20:20;41.00;;;15.88;;
51438;SDS011;38816;51.142;-0.974;2022-12-07T07:22:45;33.67;;;16.17;;
51438;SDS011;38816;51.142;-0.974;2022-12-07T07:25:11;33.47;;;17.00;;
51438;SDS011;38816;51.142;-0.974;2022-12-07T07:27:36;40.22;;;16.92;;
51438;SDS011;38816;51.142;-0.974;2022-12-07T07:30:02;37.53;;;15.57;;
51438;SDS011;38816;51.142;-0.974;2022-12-07T07:32:28;39.03;;;16.73;;
51438;SDS011;38816;51.142;-0.974;2022-12-07T07:34:53;34.97;;;15.23;;
51438;SDS011;38816;51.142;-0.974;2022-12-07T07:37:19;43.00;;;16.77;;
51438;SDS011;38816;51.142;-0.974;2022-12-07T07:39:44;35.10;;;14.98;;
51438;SDS011;38816;51.142;-0.974;2022-12-07T07:42:09;34.45;;;15.88;;
51438;SDS011;38816;51.142;-0.974;2022-12-07T07:44:35;35.42;;;16.40;;
51438;SDS011;38816;51.142;-0.974;2022-12-07T07:47:00;40.40;;;15.82;;
51438;SDS011;38816;51.142;-0.974;2022-12-07T07:49:26;30.00;;;14.40;;
51438;SDS011;38816;51.142;-0.974;2022-12-07T07:51:51;32.33;;;14.70;;
51438;SDS011;38816;51.142;-0.974;2022-12-07T07:54:17;30.30;;;13.68;;
51438;SDS011;38816;51.142;-0.974;2022-12-07T07:56:42;31.75;;;13.77;;
51438;SDS011;38816;51.142;-0.974;2022-12-07T07:59:08;29.98;;;13.80;;
51438;SDS011;38816;51.142;-0.974;2022-12-07T08:01:33;39.47;;;14.25;;
51438;SDS011;38816;51.142;-0.974;2022-12-07T08:03:59;32.33;;;13.75;;
51438;SDS011;38816;51.142;-0.974;2022-12-07T08:06:24;28.50;;;13.30;;
51438;SDS011;38816;51.142;-0.974;2022-12-07T08:08:50;29.10;;;14.27;;
51438;SDS011;38816;51.142;-0.974;2022-12-07T08:11:15;37.20;;;15.38;;
51438;SDS011;38816;51.142;-0.974;2022-12-07T08:13:41;34.45;;;15.68;;
51438;SDS011;38816;51.142;-0.974;2022-12-07T08:16:07;34.72;;;16.17;;
51438;SDS011;38816;51.142;-0.974;2022-12-07T08:18:38;35.10;;;15.07;;
51438;SDS011;38816;51.142;-0.974;2022-12-07T08:21:05;38.65;;;15.88;;
51438;SDS011;38816;51.142;-0.974;2022-12-07T08:23:31;36.72;;;17.23;;
51438;SDS011;38816;51.142;-0.974;2022-12-07T08:26:00;38.58;;;16.95;;
51438;SDS011;38816;51.142;-0.974;2022-12-07T08:28:29;36.85;;;16.63;;
51438;SDS011;38816;51.142;-0.974;2022-12-07T08:31:14;37.53;;;16.23;;
51438;SDS011;38816;51.142;-0.974;2022-12-07T08:33:42;43.00;;;18.17;;
51438;SDS011;38816;51.142;-0.974;2022-12-07T08:36:08;35.78;;;17.58;;
51438;SDS011;38816;51.142;-0.974;2022-12-07T08:38:35;41.80;;;17.23;;
51438;SDS011;38816;51.142;-0.974;2022-12-07T08:41:01;42.22;;;16.85;;
51438;SDS011;38816;51.142;-0.974;2022-12-07T08:43:27;34.63;;;15.95;;
51438;SDS011;38816;51.142;-0.974;2022-12-07T08:48:38;33.65;;;16.17;;
51438;SDS011;38816;51.142;-0.974;2022-12-07T08:51:08;31.52;;;15.75;;
51438;SDS011;38816;51.142;-0.974;2022-12-07T08:53:35;36.92;;;14.15;;
51438;SDS011;38816;51.142;-0.974;2022-12-07T08:56:02;29.75;;;13.63;;
51438;SDS011;38816;51.142;-0.974;2022-12-07T08:58:29;26.75;;;13.13;;
51438;SDS011;38816;51.142;-0.974;2022-12-07T09:00:54;35.17;;;14.60;;
51438;SDS011;38816;51.142;-0.974;2022-12-07T09:03:19;31.88;;;14.10;;
51438;SDS011;38816;51.142;-0.974;2022-12-07T09:05:45;29.25;;;13.85;;
51438;SDS011;38816;51.142;-0.974;2022-12-07T09:08:10;29.50;;;13.70;;
51438;SDS011;38816;51.142;-0.974;2022-12-07T09:10:36;29.75;;;13.40;;
51438;SDS011;38816;51.142;-0.974;2022-12-07T09:13:01;30.13;;;13.23;;
51438;SDS011;38816;51.142;-0.974;2022-12-07T09:15:27;34.10;;;14.40;;
51438;SDS011;38816;51.142;-0.974;2022-12-07T09:17:53;29.27;;;14.82;;
51438;SDS011;38816;51.142;-0.974;2022-12-07T09:20:19;34.95;;;16.48;;
51438;SDS011;38816;51.142;-0.974;2022-12-07T09:22:44;37.45;;;15.85;;
51438;SDS011;38816;51.142;-0.974;2022-12-07T09:25:10;31.60;;;13.43;;
51438;SDS011;38816;51.142;-0.974;2022-12-07T09:27:35;29.30;;;14.15;;
51438;SDS011;38816;51.142;-0.974;2022-12-07T09:30:01;30.58;;;13.95;;
51438;SDS011;38816;51.142;-0.974;2022-12-07T09:32:28;25.13;;;12.45;;
51438;SDS011;38816;51.142;-0.974;2022-12-07T09:34:53;26.98;;;13.55;;
51438;SDS011;38816;51.142;-0.974;2022-12-07T09:37:19;29.40;;;12.30;;
51438;SDS011;38816;51.142;-0.974;2022-12-07T09:39:44;29.30;;;13.30;;
51438;SDS011;38816;51.142;-0.974;2022-12-07T09:42:11;25.88;;;12.35;;
51438;SDS011;38816;51.142;-0.974;2022-12-07T09:44:53;36.67;;;13.25;;
51438;SDS011;38816;51.142;-0.974;2022-12-07T09:47:19;26.67;;;12.20;;
51438;SDS011;38816;51.142;-0.974;2022-12-07T09:49:44;32.92;;;13.43;;
51438;SDS011;38816;51.142;-0.974;2022-12-07T09:52:17;27.65;;;13.45;;
51438;SDS011;38816;51.142;-0.974;2022-12-07T09:54:47;30.50;;;13.95;;
51438;SDS011;38816;51.142;-0.974;2022-12-07T09:57:14;33.60;;;13.35;;
51438;SDS011;38816;51.142;-0.974;2022-12-07T09:59:40;30.17;;;13.52;;
51438;SDS011;38816;51.142;-0.974;2022-12-07T10:04:53;31.13;;;12.68;;
51438;SDS011;38816;51.142;-0.974;2022-12-07T10:07:19;25.88;;;12.40;;
51438;SDS011;38816;51.142;-0.974;2022-12-07T10:09:44;34.15;;;13.00;;
51438;SDS011;38816;51.142;-0.974;2022-12-07T10:12:11;28.20;;;12.48;;
51438;SDS011;38816;51.142;-0.974;2022-12-07T10:14:38;25.63;;;12.40;;
51438;SDS011;38816;51.142;-0.974;2022-12-07T10:17:30;28.60;;;11.45;;
51438;SDS011;38816;51.142;-0.974;2022-12-07T10:20:15;25.83;;;11.45;;
51438;SDS011;38816;51.142;-0.974;2022-12-07T10:25:27;32.33;;;12.05;;
51438;SDS011;38816;51.142;-0.974;2022-12-07T10:28:18;21.95;;;10.60;;
51438;SDS011;38816;51.142;-0.974;2022-12-07T10:36:15;22.45;;;10.45;;
51438;SDS011;38816;51.142;-0.974;2022-12-07T10:38:59;25.35;;;9.93;;
51438;SDS011;38816;51.142;-0.974;2022-12-07T10:44:22;24.50;;;10.13;;
51438;SDS011;38816;51.142;-0.974;2022-12-07T10:46:52;25.85;;;9.35;;
51438;SDS011;38816;51.142;-0.974;2022-12-07T10:57:32;21.08;;;9.55;;
51438;SDS011;38816;51.142;-0.974;2022-12-07T11:00:23;22.95;;;8.98;;
51438;SDS011;38816;51.142;-0.974;2022-12-07T11:03:09;23.23;;;9.88;;
51438;SDS011;38816;51.142;-0.974;2022-12-07T11:19:43;21.23;;;8.98;;
51438;SDS011;38816;51.142;-0.974;2022-12-07T11:22:57;24.20;;;9.48;;
51438;SDS011;38816;51.142;-0.974;2022-12-07T11:33:20;14.80;;;7.30;;
51438;SDS011;38816;51.142;-0.974;2022-12-07T11:38:54;17.67;;;7.70;;
51438;SDS011;38816;51.142;-0.974;2022-12-07T11:41:23;20.90;;;7.68;;
51438;SDS011;38816;51.142;-0.974;2022-12-07T11:43:55;22.17;;;8.18;;
51438;SDS011;38816;51.142;-0.974;2022-12-07T11:46:25;18.45;;;7.85;;
51438;SDS011;38816;51.142;-0.974;2022-12-07T11:51:42;23.60;;;8.27;;
51438;SDS011;38816;51.142;-0.974;2022-12-07T11:54:18;19.60;;;8.10;;
51438;SDS011;38816;51.142;-0.974;2022-12-07T11:56:51;13.10;;;6.90;;
51438;SDS011;38816;51.142;-0.974;2022-12-07T11:59:32;15.25;;;7.07;;
51438;SDS011;38816;51.142;-0.974;2022-12-07T12:02:13;20.73;;;7.28;;
51438;SDS011;38816;51.142;-0.974;2022-12-07T12:04:46;21.92;;;6.68;;
51438;SDS011;38816;51.142;-0.974;2022-12-07T12:07:21;19.85;;;7.53;;
51438;SDS011;38816;51.142;-0.974;2022-12-07T12:09:59;15.65;;;6.90;;
51438;SDS011;38816;51.142;-0.974;2022-12-07T12:21:26;14.35;;;5.10;;
51438;SDS011;38816;51.142;-0.974;2022-12-07T12:26:07;14.98;;;5.65;;
51438;SDS011;38816;51.142;-0.974;2022-12-07T12:28:55;17.25;;;6.70;;
51438;SDS011;38816;51.142;-0.974;2022-12-07T12:33:59;12.23;;;6.40;;
51438;SDS011;38816;51.142;-0.974;2022-12-07T12:46:55;12.13;;;5.57;;
51438;SDS011;38816;51.142;-0.974;2022-12-07T12:54:20;11.27;;;5.35;;
51438;SDS011;38816;51.142;-0.974;2022-12-07T12:56:52;11.00;;;5.65;;
51438;SDS011;38816;51.142;-0.974;2022-12-07T13:02:25;13.38;;;6.80;;
51438;SDS011;38816;51.142;-0.974;2022-12-07T13:05:37;18.42;;;5.60;;
51438;SDS011;38816;51.142;-0.974;2022-12-07T13:20:58;11.75;;;4.95;;
51438;SDS011;38816;51.142;-0.974;2022-12-07T13:26:18;17.85;;;5.00;;
51438;SDS011;38816;51.142;-0.974;2022-12-07T13:28:49;16.27;;;4.65;;
51438;SDS011;38816;51.142;-0.974;2022-12-07T13:39:49;13.73;;;4.80;;
51438;SDS011;38816;51.142;-0.974;2022-12-07T13:44:51;13.20;;;4.50;;
51438;SDS011;38816;51.142;-0.974;2022-12-07T13:47:32;8.98;;;4.07;;
51438;SDS011;38816;51.142;-0.974;2022-12-07T13:50:21;9.27;;;4.13;;
51438;SDS011;38816;51.142;-0.974;2022-12-07T13:52:54;10.65;;;3.10;;
51438;SDS011;38816;51.142;-0.974;2022-12-07T13:55:21;11.93;;;3.22;;
51438;SDS011;38816;51.142;-0.974;2022-12-07T13:57:48;14.93;;;3.60;;
51438;SDS011;38816;51.142;-0.974;2022-12-07T14:00:17;14.10;;;3.17;;
51438;SDS011;38816;51.142;-0.974;2022-12-07T14:08:02;11.63;;;3.70;;
51438;SDS011;38816;51.142;-0.974;2022-12-07T14:10:30;10.40;;;3.38;;
51438;SDS011;38816;51.142;-0.974;2022-12-07T14:15:59;7.82;;;3.13;;
51438;SDS011;38816;51.142;-0.974;2022-12-07T14:18:43;12.20;;;3.75;;
51438;SDS011;38816;51.142;-0.974;2022-12-07T14:23:34;10.30;;;3.53;;
51438;SDS011;38816;51.142;-0.974;2022-12-07T14:26:16;9.88;;;3.10;;
51438;SDS011;38816;51.142;-0.974;2022-12-07T14:28:45;6.13;;;2.78;;
51438;SDS011;38816;51.142;-0.974;2022-12-07T14:31:12;8.75;;;2.90;;
51438;SDS011;38816;51.142;-0.974;2022-12-07T14:33:42;8.15;;;2.75;;
51438;SDS011;38816;51.142;-0.974;2022-12-07T14:36:09;9.38;;;3.20;;
51438;SDS011;38816;51.142;-0.974;2022-12-07T14:38:35;8.57;;;3.30;;
51438;SDS011;38816;51.142;-0.974;2022-12-07T14:41:01;11.23;;;3.28;;
51438;SDS011;38816;51.142;-0.974;2022-12-07T14:43:47;13.25;;;3.20;;
51438;SDS011;38816;51.142;-0.974;2022-12-07T14:46:13;12.50;;;3.42;;
51438;SDS011;38816;51.142;-0.974;2022-12-07T14:48:38;13.50;;;3.22;;
51438;SDS011;38816;51.142;-0.974;2022-12-07T14:51:04;9.25;;;3.75;;
51438;SDS011;38816;51.142;-0.974;2022-12-07T14:53:33;12.10;;;3.58;;
51438;SDS011;38816;51.142;-0.974;2022-12-07T14:56:02;13.63;;;3.42;;
51438;SDS011;38816;51.142;-0.974;2022-12-07T14:58:30;11.93;;;4.20;;
51438;SDS011;38816;51.142;-0.974;2022-12-07T15:00:56;12.13;;;3.05;;
51438;SDS011;38816;51.142;-0.974;2022-12-07T15:03:21;7.32;;;3.00;;
51438;SDS011;38816;51.142;-0.974;2022-12-07T15:05:46;15.23;;;3.25;;
51438;SDS011;38816;51.142;-0.974;2022-12-07T15:08:12;7.43;;;3.10;;
51438;SDS011;38816;51.142;-0.974;2022-12-07T15:10:38;14.10;;;3.58;;
51438;SDS011;38816;51.142;-0.974;2022-12-07T15:13:05;9.88;;;4.07;;
51438;SDS011;38816;51.142;-0.974;2022-12-07T15:15:50;11.32;;;4.03;;
51438;SDS011;38816;51.142;-0.974;2022-12-07T15:18:17;11.07;;;3.88;;
51438;SDS011;38816;51.142;-0.974;2022-12-07T15:20:43;17.08;;;4.07;;
51438;SDS011;38816;51.142;-0.974;2022-12-07T15:23:10;10.18;;;3.65;;
51438;SDS011;38816;51.142;-0.974;2022-12-07T15:25:36;12.82;;;4.55;;
51438;SDS011;38816;51.142;-0.974;2022-12-07T15:28:05;13.63;;;4.88;;
51438;SDS011;38816;51.142;-0.974;2022-12-07T15:30:31;11.02;;;4.93;;
51438;SDS011;38816;51.142;-0.974;2022-12-07T15:32:56;16.27;;;5.32;;
51438;SDS011;38816;51.142;-0.974;2022-12-07T15:35:22;10.65;;;4.22;;
51438;SDS011;38816;51.142;-0.974;2022-12-07T15:37:47;17.63;;;5.53;;
51438;SDS011;38816;51.142;-0.974;2022-12-07T15:40:13;14.65;;;5.40;;
51438;SDS011;38816;51.142;-0.974;2022-12-07T15:42:39;12.70;;;5.43;;
51438;SDS011;38816;51.142;-0.974;2022-12-07T15:45:05;13.77;;;5.93;;
51438;SDS011;38816;51.142;-0.974;2022-12-07T15:47:42;15.13;;;5.25;;
51438;SDS011;38816;51.142;-0.974;2022-12-07T15:50:11;15.60;;;5.07;;
51438;SDS011;38816;51.142;-0.974;2022-12-07T15:52:38;14.90;;;4.00;;
51438;SDS011;38816;51.142;-0.974;2022-12-07T15:55:04;16.55;;;4.05;;
51438;SDS011;38816;51.142;-0.974;2022-12-07T15:57:31;14.13;;;4.55;;
51438;SDS011;38816;51.142;-0.974;2022-12-07T15:59:57;15.40;;;4.80;;
51438;SDS011;38816;51.142;-0.974;2022-12-07T16:02:22;16.17;;;4.60;;
51438;SDS011;38816;51.142;-0.974;2022-12-07T16:04:48;19.98;;;5.25;;
51438;SDS011;38816;51.142;-0.974;2022-12-07T16:07:15;20.95;;;5.90;;
51438;SDS011;38816;51.142;-0.974;2022-12-07T16:09:44;20.13;;;6.93;;
51438;SDS011;38816;51.142;-0.974;2022-12-07T16:12:11;19.23;;;7.03;;
51438;SDS011;38816;51.142;-0.974;2022-12-07T16:14:37;22.60;;;8.40;;
51438;SDS011;38816;51.142;-0.974;2022-12-07T16:17:04;16.65;;;7.55;;
51438;SDS011;38816;51.142;-0.974;2022-12-07T16:19:30;20.80;;;7.85;;
51438;SDS011;38816;51.142;-0.974;2022-12-07T16:21:56;19.92;;;6.60;;
51438;SDS011;38816;51.142;-0.974;2022-12-07T16:24:22;20.42;;;7.93;;
51438;SDS011;38816;51.142;-0.974;2022-12-07T16:26:48;20.83;;;7.07;;
51438;SDS011;38816;51.142;-0.974;2022-12-07T16:29:14;13.40;;;6.55;;
51438;SDS011;38816;51.142;-0.974;2022-12-07T16:31:40;15.70;;;8.05;;
51438;SDS011;38816;51.142;-0.974;2022-12-07T16:34:06;21.10;;;8.13;;
51438;SDS011;38816;51.142;-0.974;2022-12-07T16:36:32;15.60;;;7.70;;
51438;SDS011;38816;51.142;-0.974;2022-12-07T16:38:58;23.83;;;7.93;;
51438;SDS011;38816;51.142;-0.974;2022-12-07T16:41:24;19.90;;;8.32;;
51438;SDS011;38816;51.142;-0.974;2022-12-07T16:43:50;18.88;;;7.43;;
51438;SDS011;38816;51.142;-0.974;2022-12-07T16:46:15;19.33;;;7.07;;
51438;SDS011;38816;51.142;-0.974;2022-12-07T16:48:41;24.75;;;8.63;;
51438;SDS011;38816;51.142;-0.974;2022-12-07T16:51:08;23.10;;;8.82;;
51438;SDS011;38816;51.142;-0.974;2022-12-07T16:53:35;19.02;;;7.95;;
51438;SDS011;38816;51.142;-0.974;2022-12-07T16:56:01;20.83;;;8.40;;
51438;SDS011;38816;51.142;-0.974;2022-12-07T16:58:27;20.83;;;8.95;;
51438;SDS011;38816;51.142;-0.974;2022-12-07T17:00:53;20.98;;;9.55;;
51438;SDS011;38816;51.142;-0.974;2022-12-07T17:03:18;28.98;;;8.95;;